Schodack Landing, NY (12156)

9:16 PM EDT on September 22, 2014 (GMT -0400)
Corvus Observatory | Change Station
CLOSE
Current Station
Personal Weather Station
Location: North Chatham, NY
Elevation: 331 ft
Nearby Weather Stations

Elev 331 ft 42.47 °N, 73.64 °W | Updated 2 seconds ago

Mostly Cloudy
Mostly Cloudy
51.3 °F
Feels Like 51.3 °F
N
0.0
Wind Variable Wind from North
Gusts 1.0 mph

Today
High -- | Low -- °F
--% Chance of Precip.
Yesterday
High -- | Low -- °F
Precip. -- in
6:42 AM 6:52 PM
Waning Crescent, 1% visible
Pressure 30.11 in
Visibility 10.0 miles
Clouds Mostly Cloudy 4800 ft
Dew Point 44 °F
Humidity 77%
Rainfall 0.00 in
Snow Depth Not available.
UV 0 out of 12
Pollen 2.90 out of 12
Ozone Good
PM2.5 Good
Flu Activity Not available.
METAR KALB 230051Z 29004KT 10SM BKN048 11/04 A3010 RMK AO2 SLP194 T01060044 $

More Conditions Fewer Conditions

Pressure 30.11 in
Visibility 10.0 miles
Clouds Mostly Cloudy 4800 ft
Dew Point 44 °F
Humidity 77%
Rainfall 0.00 in
Snow Depth Not available.
UV 0 out of 12
Pollen 2.90 out of 12
Ozone Good
PM2.5 Good
Flu Activity Not available.
METAR KALB 230051Z 29004KT 10SM BKN048 11/04 A3010 RMK AO2 SLP194 T01060044 $

More Conditions Fewer Conditions

10-Day Weather Forecast

Almanac

Astronomy

Sep. 22, 2014 Rise Set
Actual Time 6:42 AM EDT 6:52 PM EDT
Civil Twilight 6:14 AM EDT 7:20 PM EDT
Nautical Twilight 5:41 AM EDT 7:53 PM EDT
Astronomical Twilight 5:07 AM EDT 8:26 PM EDT
Moon 5:07 AM EDT (9/22) 5:59 PM EDT (9/22)
Length of Visible Light 13h 06m
Length of Day
12h 10m
Tomorrow will be 2m 51s shorter.
Waning Crescent, 1% of the Moon is Illuminated
Today
Waning Crescent
Sep 24
New
Oct 1
First Quarter
Oct 8
Full
Oct 15
Last Quarter

Today's Extremes

State Highs State Lows

Community

WunderPhotos

Upload Photos

1,755,578 photos uploaded!

Nearby

Air Quality

  Air Quality AQ Index Pollutant
Yesterday Good
OZONE
Yesterday Good
PM2.5
Current Good
OZONE
Current Good
PM2.5
Monday Good
OZONE
Monday Good
PM2.5
Tuesday Good
OZONE
Tuesday Good
PM2.5

Snow Depth

Station Depth Elevation
No new snow has been reported.

Earthquake Activity

City Distance Mag. Time & Date
No recent earthquake activity has been reported nearby.
Minimum magnitude displayed is 2.5.

Coastal Water Temperatures

Place Temperature
No Stations Reporting

Nearby Weather Stations